Share

Hoekmarksberget, Sweden

Skelleftea (ESNS) Elev 144 ft | 64.62 °N, 21.08 °E | Change Station

Current weather conditions updated 19 minutes ago

Overcast
Overcast
34 °F
Feels Like 34 °F
N
0
Wind Variable Wind from North
Sunrise 4:41 AM
Sunset 8:27 PM
Moon Waning Gibbous

Today is forecast to be Warmer than yesterday.

Pressure 30.21 in
Visibility 6.2 miles
Clouds Overcast 4800 ft
Dew Point 34 °F
Humidity 100%
Rainfall 0.00 in
Snow Depth Not available.
UV 0 out of 16
Pollen Not available.
Air Quality Not available.
Flu Activity Not available.
METAR ESNS 210350Z AUTO 00000KT 9999NDV OVC048/// 01/01 Q1023

More Conditions Fewer Conditions

Pressure 30.21 in
Visibility 6.2 miles
Clouds Overcast 4800 ft
Dew Point 34 °F
Humidity 100%
Rainfall 0.00 in
Snow Depth Not available.
UV 0 out of 16
Pollen Not available.
Air Quality Not available.
Flu Activity Not available.
METAR ESNS 210350Z AUTO 00000KT 9999NDV OVC048/// 01/01 Q1023

More Conditions Fewer Conditions

10-Day Weather Forecast

Almanac

Astronomy

Apr. 21, 2014 Rise Set
Actual Time 4:41 AM CEST 8:27 PM CEST
Civil Twilight 3:41 AM CEST 9:28 PM CEST
Nautical Twilight 2:02 AM CEST 11:11 PM CEST
Astronomical Twilight Sun does not rise Sun does not rise
Moon 2:22 AM CEST 9:09 AM CEST
Length of Visible Light 17h 46m
Length of Day
15h 46m
Tomorrow will be 6m 44s longer.
Waning Gibbous, 63% of the Moon is Illuminated
Today
Waning Gibbous
Apr 22
Last Quarter
Apr 29
New
May 6
First Quarter
May 14
Full

Yesterday's Extremes

Country Highs Country Lows

Community

  • Snowy Robin
    Snowy Robin
  • Sun Pillar and Geese
    Sun Pillar and Geese
  • Showers on the Way
    Showers on the Way
  • Easter Morning Fog
    Easter Morning Fog
  • Easter Dance
    Easter Dance

WunderPhotos

Upload Photos

1,703,551 photos uploaded!

WunderBlogs® & News

Nearby

Snow Depth

Not available.

Coastal Water Temperatures

Place Temperature
No Stations Reporting

Earthquake Activity

City Distance Mag. Time & Date
No recent earthquake activity has been reported nearby.
Minimum magnitude displayed is 2.5.

Nearby Weather Stations

Station Location Temp. Windchill Dew Point Humidity Wind Precip. Elev Updated Type
Ursviken, kv. Majorskan, Skelleftea 35.1 °F 35 °F 25 °F 66% North  at  0.0 mph 0.00 in / hr 0 ft 6:05 AM CEST Normal

Show More Stations Show Fewer Stations

What do you think?

We're not finished. Please let us know what you like, what you don't like, and what you are still missing.